Time;durP1;ratioP1;P1;durP2;ratioP2;P2;SDS_P1;SDS_P2;PMS_P1;PMS_P2;Temp;Humidity;BMP_temperature;BMP_pressure;BME280_temperature;BME280_humidity;BME280_pressure;Samples;Min_cycle;Max_cycle;Signal;HPM_P1;HPM_P2
2023/01/19 02:15:44;;;;;;;1999.90;999.90;;;;;;;;;;4991706;28;20220;-70
2023/01/19 02:18:30;;;;;;;1999.90;999.90;;;;;;;;;;4970980;28;20345;-70
2023/01/19 02:21:19;;;;;;;1999.90;999.90;;;;;;;;;;4953713;29;20296;-69
2023/01/19 02:24:06;;;;;;;1999.90;999.90;;;;;;;;;;4965179;28;20296;-70
2023/01/19 02:26:51;;;;;;;1999.90;999.90;;;;;;;;;;4953000;28;20287;-70
2023/01/19 02:29:36;;;;;;;1999.90;999.90;;;;;;;;;;4960286;28;20311;-69
2023/01/19 02:32:21;;;;;;;1999.90;999.90;;;;;;;;;;4957705;29;20722;-69
2023/01/19 02:35:06;;;;;;;1999.90;999.90;;;;;;;;;;4956918;29;20208;-68
2023/01/19 02:37:52;;;;;;;1999.90;999.90;;;;;;;;;;4957478;29;20495;-67
2023/01/19 02:40:42;;;;;;;1999.90;999.90;;;;;;;;;;4963341;28;20212;-67
2023/01/19 02:43:28;;;;;;;1999.90;999.90;;;;;;;;;;4975386;28;20449;-69
2023/01/19 02:46:14;;;;;;;1999.90;999.90;;;;;;;;;;4976339;28;20256;-69
2023/01/19 02:48:59;;;;;;;1999.90;999.90;;;;;;;;;;4976593;28;20737;-70
2023/01/19 02:51:44;;;;;;;1999.90;999.90;;;;;;;;;;4976502;28;20223;-69
2023/01/19 02:54:36;;;;;;;1999.90;999.90;;;;;;;;;;4976125;28;20204;-69
2023/01/19 02:57:30;;;;;;;1999.90;999.90;;;;;;;;;;4976579;28;20352;-69
2023/01/19 03:00:18;;;;;;;1999.90;999.90;;;;;;;;;;4976314;28;20303;-69
2023/01/19 03:03:12;;;;;;;1999.90;999.90;;;;;;;;;;4964147;28;20364;-70
2023/01/19 03:06:00;;;;;;;1999.90;999.90;;;;;;;;;;4965232;28;20574;-69
2023/01/19 03:08:47;;;;;;;1999.90;999.90;;;;;;;;;;4955006;28;20410;-69
2023/01/19 03:11:33;;;;;;;1999.90;999.90;;;;;;;;;;4956863;29;20668;-70
2023/01/19 03:14:21;;;;;;;1999.90;999.90;;;;;;;;;;4967492;28;20214;-68
2023/01/19 03:17:07;;;;;;;1999.90;999.90;;;;;;;;;;4975108;28;20279;-69
2023/01/19 03:19:53;;;;;;;1999.90;999.90;;;;;;;;;;4956704;28;20229;-69
2023/01/19 03:22:39;;;;;;;1999.90;999.90;;;;;;;;;;4956728;29;20282;-69
2023/01/19 03:25:24;;;;;;;1999.90;999.90;;;;;;;;;;4956255;29;20221;-69
2023/01/19 03:28:10;;;;;;;1999.90;999.90;;;;;;;;;;4974420;28;20260;-67
2023/01/19 03:30:58;;;;;;;1999.90;999.90;;;;;;;;;;4975825;28;20212;-69
2023/01/19 03:33:47;;;;;;;1999.90;999.90;;;;;;;;;;4975675;28;20208;-69
2023/01/19 03:36:34;;;;;;;1999.90;999.90;;;;;;;;;;4975655;28;20207;-67
2023/01/19 03:39:21;;;;;;;1999.90;999.90;;;;;;;;;;4975671;28;20602;-69
2023/01/19 03:42:08;;;;;;;1999.90;999.90;;;;;;;;;;4974557;28;20212;-69
2023/01/19 03:44:55;;;;;;;1999.90;999.90;;;;;;;;;;4975473;28;20291;-69
2023/01/19 03:47:41;;;;;;;1999.90;999.90;;;;;;;;;;4975504;28;20268;-69
2023/01/19 03:50:27;;;;;;;1999.90;999.90;;;;;;;;;;4975333;28;20255;-69
2023/01/19 03:53:15;;;;;;;1999.90;999.90;;;;;;;;;;4975379;28;20690;-69
2023/01/19 03:56:00;;;;;;;1999.90;999.90;;;;;;;;;;4974511;28;20208;-69
2023/01/19 03:58:45;;;;;;;1999.90;999.90;;;;;;;;;;4969781;28;20224;-69
2023/01/19 04:01:30;;;;;;;1999.90;999.90;;;;;;;;;;4973000;28;20216;-70
2023/01/19 04:04:17;;;;;;;1999.90;999.90;;;;;;;;;;4962349;28;20228;-69
2023/01/19 04:07:02;;;;;;;1999.90;999.90;;;;;;;;;;4956033;29;20221;-69
2023/01/19 04:09:47;;;;;;;1999.90;999.90;;;;;;;;;;4955650;28;20600;-70
2023/01/19 04:12:31;;;;;;;1999.90;999.90;;;;;;;;;;4955769;29;20212;-70
2023/01/19 04:15:17;;;;;;;1999.90;999.90;;;;;;;;;;4958561;28;20227;-70
2023/01/19 04:18:02;;;;;;;1999.90;999.90;;;;;;;;;;4974982;28;20212;-69
2023/01/19 04:20:49;;;;;;;1999.90;999.90;;;;;;;;;;4974960;28;20211;-69
2023/01/19 04:23:34;;;;;;;1999.90;999.90;;;;;;;;;;4974681;28;20216;-70
2023/01/19 04:26:19;;;;;;;1999.90;999.90;;;;;;;;;;4974557;28;20204;-69
2023/01/19 04:29:04;;;;;;;1999.90;999.90;;;;;;;;;;4974706;28;20231;-69
2023/01/19 04:31:49;;;;;;;1999.90;999.90;;;;;;;;;;4974470;28;20729;-69
2023/01/19 04:34:34;;;;;;;1999.90;999.90;;;;;;;;;;4974349;28;20750;-70
2023/01/19 04:37:20;;;;;;;1999.90;999.90;;;;;;;;;;4974102;28;20290;-70
2023/01/19 04:40:06;;;;;;;1999.90;999.90;;;;;;;;;;4955849;28;20260;-70
2023/01/19 04:42:51;;;;;;;1999.90;999.90;;;;;;;;;;4974629;28;20693;-70
2023/01/19 04:45:36;;;;;;;1999.90;999.90;;;;;;;;;;4973863;28;20571;-70
2023/01/19 04:48:21;;;;;;;1999.90;999.90;;;;;;;;;;4974188;28;20215;-69
2023/01/19 04:51:06;;;;;;;1999.90;999.90;;;;;;;;;;4974184;28;20611;-70
2023/01/19 04:53:52;;;;;;;1999.90;999.90;;;;;;;;;;4972917;28;21018;-69
2023/01/19 04:56:37;;;;;;;1999.90;999.90;;;;;;;;;;4973473;28;20806;-69
2023/01/19 04:59:22;;;;;;;1999.90;999.90;;;;;;;;;;4973809;28;20733;-69
2023/01/19 05:02:07;;;;;;;1999.90;999.90;;;;;;;;;;4973958;28;20719;-70
2023/01/19 05:04:52;;;;;;;1999.90;999.90;;;;;;;;;;4973276;28;21070;-69
2023/01/19 05:07:36;;;;;;;1999.90;999.90;;;;;;;;;;4974029;28;20339;-69
2023/01/19 05:10:23;;;;;;;1999.90;999.90;;;;;;;;;;4973577;28;20608;-68
2023/01/19 05:13:08;;;;;;;1999.90;999.90;;;;;;;;;;4974016;28;20211;-69
2023/01/19 05:15:53;;;;;;;1999.90;999.90;;;;;;;;;;4973318;28;20702;-69
2023/01/19 05:18:38;;;;;;;1999.90;999.90;;;;;;;;;;4973967;28;20244;-69
2023/01/19 05:21:22;;;;;;;1999.90;999.90;;;;;;;;;;4973208;28;20215;-68
2023/01/19 05:24:08;;;;;;;1999.90;999.90;;;;;;;;;;4973289;28;20223;-68
2023/01/19 05:26:54;;;;;;;1999.90;999.90;;;;;;;;;;4973710;28;20208;-68
2023/01/19 05:29:39;;;;;;;1999.90;999.90;;;;;;;;;;4973198;28;20332;-69
2023/01/19 05:32:24;;;;;;;1999.90;999.90;;;;;;;;;;4973654;28;20208;-69
2023/01/19 05:35:09;;;;;;;1999.90;999.90;;;;;;;;;;4972886;28;20777;-68
2023/01/19 05:37:54;;;;;;;1999.90;999.90;;;;;;;;;;4973624;28;20208;-69
2023/01/19 05:40:39;;;;;;;1999.90;999.90;;;;;;;;;;4973143;28;20220;-69
2023/01/19 05:43:25;;;;;;;1999.90;999.90;;;;;;;;;;4973586;28;20228;-69
2023/01/19 05:46:10;;;;;;;1999.90;999.90;;;;;;;;;;4973235;28;20212;-69
2023/01/19 05:48:55;;;;;;;1999.90;999.90;;;;;;;;;;4957361;28;20227;-69
2023/01/19 05:51:44;;;;;;;1999.90;999.90;;;;;;;;;;4973145;28;20207;-69
2023/01/19 05:54:29;;;;;;;1999.90;999.90;;;;;;;;;;4972869;28;20238;-69
2023/01/19 05:57:14;;;;;;;1999.90;999.90;;;;;;;;;;4973354;28;20212;-69
2023/01/19 06:00:00;;;;;;;1999.90;999.90;;;;;;;;;;4972754;28;20247;-69
2023/01/19 06:02:46;;;;;;;1999.90;999.90;;;;;;;;;;4954038;29;20236;-69
2023/01/19 06:05:32;;;;;;;1999.90;999.90;;;;;;;;;;4972261;28;20693;-69
2023/01/19 06:08:17;;;;;;;1999.90;999.90;;;;;;;;;;4972838;28;20208;-69
2023/01/19 06:11:05;;;;;;;1999.90;999.90;;;;;;;;;;4972498;28;20498;-69
2023/01/19 06:13:50;;;;;;;1999.90;999.90;;;;;;;;;;4972917;28;20227;-69
2023/01/19 06:16:37;;;;;;;1999.90;999.90;;;;;;;;;;4972598;28;20597;-69
2023/01/19 06:19:22;;;;;;;1999.90;999.90;;;;;;;;;;4972752;28;20276;-68
2023/01/19 06:22:07;;;;;;;1999.90;999.90;;;;;;;;;;4972944;28;20204;-69
2023/01/19 06:24:52;;;;;;;1999.90;999.90;;;;;;;;;;4972153;28;20220;-68
2023/01/19 06:27:38;;;;;;;1999.90;999.90;;;;;;;;;;4972757;28;20219;-71
2023/01/19 06:30:23;;;;;;;1999.90;999.90;;;;;;;;;;4953651;28;20588;-70
2023/01/19 06:33:10;;;;;;;1999.90;999.90;;;;;;;;;;4958665;28;20204;-70
2023/01/19 06:35:55;;;;;;;1999.90;999.90;;;;;;;;;;4972150;28;20415;-70
2023/01/19 06:38:40;;;;;;;1999.90;999.90;;;;;;;;;;4972591;28;20232;-70
2023/01/19 06:41:25;;;;;;;1999.90;999.90;;;;;;;;;;4972897;28;20291;-70
2023/01/19 06:44:10;;;;;;;1999.90;999.90;;;;;;;;;;4972341;28;20232;-70
2023/01/19 06:46:55;;;;;;;1999.90;999.90;;;;;;;;;;4972879;28;20340;-70
2023/01/19 06:49:41;;;;;;;1999.90;999.90;;;;;;;;;;4953238;28;20750;-70
2023/01/19 06:52:27;;;;;;;1999.90;999.90;;;;;;;;;;4971079;28;20689;-70
2023/01/19 06:55:13;;;;;;;1999.90;999.90;;;;;;;;;;4972627;28;20201;-68
2023/01/19 06:57:58;;;;;;;1999.90;999.90;;;;;;;;;;4956433;28;20216;-70
2023/01/19 07:00:43;;;;;;;1999.90;999.90;;;;;;;;;;4952777;28;20723;-70
2023/01/19 07:03:28;;;;;;;1999.90;999.90;;;;;;;;;;4959521;28;20686;-70
2023/01/19 07:06:15;;;;;;;1999.90;999.90;;;;;;;;;;4957140;28;20310;-69
2023/01/19 07:09:03;;;;;;;1999.90;999.90;;;;;;;;;;4958167;28;20315;-67
2023/01/19 07:11:48;;;;;;;1999.90;999.90;;;;;;;;;;4972534;28;20731;-68
2023/01/19 07:14:33;;;;;;;1999.90;999.90;;;;;;;;;;4972851;28;20203;-69
2023/01/19 07:17:18;;;;;;;1999.90;999.90;;;;;;;;;;4976088;28;20336;-70
2023/01/19 07:20:03;;;;;;;1999.90;999.90;;;;;;;;;;4976198;28;20303;-68
2023/01/19 07:22:55;;;;;;;1999.90;999.90;;;;;;;;;;4975919;28;20207;-70
2023/01/19 07:25:40;;;;;;;1999.90;999.90;;;;;;;;;;4975378;28;20749;-66
2023/01/19 07:28:25;;;;;;;1999.90;999.90;;;;;;;;;;4975874;28;20679;-68
2023/01/19 07:31:10;;;;;;;1999.90;999.90;;;;;;;;;;4975870;28;20279;-68
2023/01/19 07:33:55;;;;;;;1999.90;999.90;;;;;;;;;;4974059;28;20219;-70
2023/01/19 07:36:40;;;;;;;1999.90;999.90;;;;;;;;;;4975059;28;20208;-70
2023/01/19 07:39:26;;;;;;;1999.90;999.90;;;;;;;;;;4974047;28;20340;-70
2023/01/19 07:42:11;;;;;;;1999.90;999.90;;;;;;;;;;4955524;28;20216;-69
2023/01/19 07:44:56;;;;;;;1999.90;999.90;;;;;;;;;;4954966;28;20726;-70
2023/01/19 07:47:42;;;;;;;1999.90;999.90;;;;;;;;;;4955621;28;20208;-70
2023/01/19 07:50:28;;;;;;;1999.90;999.90;;;;;;;;;;4955558;28;20455;-70
2023/01/19 07:53:13;;;;;;;1999.90;999.90;;;;;;;;;;4955592;28;20305;-70
2023/01/19 07:55:59;;;;;;;1999.90;999.90;;;;;;;;;;4956523;28;20216;-69
2023/01/19 07:58:44;;;;;;;1999.90;999.90;;;;;;;;;;4965439;28;20828;-69
2023/01/19 08:01:30;;;;;;;1999.90;999.90;;;;;;;;;;4973184;28;20212;-70
2023/01/19 08:04:15;;;;;;;1999.90;999.90;;;;;;;;;;4970360;28;20299;-71
2023/01/19 08:06:59;;;;;;;1999.90;999.90;;;;;;;;;;4973412;28;20211;-70
2023/01/19 08:09:44;;;;;;;1999.90;999.90;;;;;;;;;;4963601;28;20307;-70
2023/01/19 08:12:31;;;;;;;1999.90;999.90;;;;;;;;;;4973083;28;20228;-70
2023/01/19 08:15:15;;;;;;;1999.90;999.90;;;;;;;;;;4973006;28;20255;-70
2023/01/19 08:18:01;;;;;;;1999.90;999.90;;;;;;;;;;4972181;28;20486;-70
2023/01/19 08:20:47;;;;;;;1999.90;999.90;;;;;;;;;;4972960;28;20698;-68
2023/01/19 08:23:32;;;;;;;1999.90;999.90;;;;;;;;;;4973113;28;20591;-70
2023/01/19 08:26:17;;;;;;;1999.90;999.90;;;;;;;;;;4972206;28;20208;-70
2023/01/19 08:29:04;;;;;;;1999.90;999.90;;;;;;;;;;4972798;28;20726;-70
2023/01/19 08:31:49;;;;;;;1999.90;999.90;;;;;;;;;;4972681;28;20585;-70
2023/01/19 08:34:34;;;;;;;1999.90;999.90;;;;;;;;;;4972745;28;20252;-70
2023/01/19 08:37:19;;;;;;;1999.90;999.90;;;;;;;;;;4972612;28;20291;-70
2023/01/19 08:40:05;;;;;;;1999.90;999.90;;;;;;;;;;4973252;28;20299;-69
2023/01/19 08:42:49;;;;;;;1999.90;999.90;;;;;;;;;;4967979;28;20212;-71
2023/01/19 08:45:36;;;;;;;1999.90;999.90;;;;;;;;;;4973757;28;20307;-71
2023/01/19 08:48:22;;;;;;;1999.90;999.90;;;;;;;;;;4973809;28;20215;-71
2023/01/19 08:51:07;;;;;;;1999.90;999.90;;;;;;;;;;4960294;28;20212;-71
2023/01/19 08:53:52;;;;;;;1999.90;999.90;;;;;;;;;;4972372;28;20211;-70
2023/01/19 08:56:37;;;;;;;1999.90;999.90;;;;;;;;;;4965129;28;20208;-70
2023/01/19 08:59:23;;;;;;;1999.90;999.90;;;;;;;;;;4956901;28;20666;-69
2023/01/19 09:02:10;;;;;;;1999.90;999.90;;;;;;;;;;4953773;28;20228;-69
2023/01/19 09:04:56;;;;;;;1999.90;999.90;;;;;;;;;;4953758;28;20312;-70
2023/01/19 09:07:41;;;;;;;1999.90;999.90;;;;;;;;;;4957983;28;20344;-69
2023/01/19 09:10:27;;;;;;;1999.90;999.90;;;;;;;;;;4957722;28;20669;-71
2023/01/19 09:13:12;;;;;;;1999.90;999.90;;;;;;;;;;4953939;28;20707;-72
2023/01/19 09:15:57;;;;;;;1999.90;999.90;;;;;;;;;;4957644;28;20208;-70
2023/01/19 09:18:44;;;;;;;1999.90;999.90;;;;;;;;;;4954838;28;20228;-70
2023/01/19 09:21:29;;;;;;;1999.90;999.90;;;;;;;;;;4954144;28;20249;-70
2023/01/19 09:24:14;;;;;;;1999.90;999.90;;;;;;;;;;4953508;28;20212;-69
2023/01/19 09:26:59;;;;;;;1999.90;999.90;;;;;;;;;;4953676;28;20211;-72
2023/01/19 09:29:51;;;;;;;1999.90;999.90;;;;;;;;;;4952187;28;20421;-70
2023/01/19 09:32:36;;;;;;;1999.90;999.90;;;;;;;;;;4953562;28;20196;-70
2023/01/19 09:35:22;;;;;;;1999.90;999.90;;;;;;;;;;4953210;28;20228;-71
2023/01/19 09:38:07;;;;;;;1999.90;999.90;;;;;;;;;;4952947;28;20244;-70
2023/01/19 09:40:53;;;;;;;1999.90;999.90;;;;;;;;;;4953502;28;20212;-69
2023/01/19 09:43:41;;;;;;;1999.90;999.90;;;;;;;;;;4953307;28;20211;-70
2023/01/19 09:46:29;;;;;;;1999.90;999.90;;;;;;;;;;4952804;28;20221;-70
2023/01/19 09:49:15;;;;;;;1999.90;999.90;;;;;;;;;;4955755;28;20360;-70
2023/01/19 09:52:03;;;;;;;1999.90;999.90;;;;;;;;;;4970962;28;20207;-70
2023/01/19 09:54:51;;;;;;;1999.90;999.90;;;;;;;;;;4952829;28;20248;-70
2023/01/19 09:57:36;;;;;;;1999.90;999.90;;;;;;;;;;4953002;28;20611;-70
2023/01/19 10:00:23;;;;;;;1999.90;999.90;;;;;;;;;;4952896;28;20232;-69
2023/01/19 10:03:12;;;;;;;1999.90;999.90;;;;;;;;;;4957622;28;20708;-70
2023/01/19 10:05:59;;;;;;;1999.90;999.90;;;;;;;;;;4970701;28;20314;-70
2023/01/19 10:08:51;;;;;;;1999.90;999.90;;;;;;;;;;4970852;28;20295;-69
2023/01/19 10:11:39;;;;;;;1999.90;999.90;;;;;;;;;;4970983;28;20702;-69
2023/01/19 10:14:28;;;;;;;1999.90;999.90;;;;;;;;;;4970508;28;20207;-69
2023/01/19 10:17:20;;;;;;;1999.90;999.90;;;;;;;;;;4968660;28;20593;-69
2023/01/19 10:20:11;;;;;;;1999.90;999.90;;;;;;;;;;4970494;28;20352;-69
2023/01/19 10:22:57;;;;;;;1999.90;999.90;;;;;;;;;;4971021;28;20286;-68
2023/01/19 10:25:43;;;;;;;1999.90;999.90;;;;;;;;;;4970321;28;20757;-69
2023/01/19 10:28:28;;;;;;;1999.90;999.90;;;;;;;;;;4971263;28;20690;-70
2023/01/19 10:31:14;;;;;;;1999.90;999.90;;;;;;;;;;4970302;28;20287;-69
2023/01/19 10:33:59;;;;;;;1999.90;999.90;;;;;;;;;;4970836;28;20340;-69
2023/01/19 10:36:45;;;;;;;1999.90;999.90;;;;;;;;;;4970529;28;20200;-69
2023/01/19 10:39:30;;;;;;;1999.90;999.90;;;;;;;;;;4969663;28;20231;-68
2023/01/19 10:42:17;;;;;;;1999.90;999.90;;;;;;;;;;4969713;28;20727;-69
2023/01/19 10:45:01;;;;;;;1999.90;999.90;;;;;;;;;;4961756;28;20596;-69
2023/01/19 10:47:47;;;;;;;1999.90;999.90;;;;;;;;;;4953535;29;20261;-69
2023/01/19 10:50:33;;;;;;;1999.90;999.90;;;;;;;;;;4960959;28;20229;-70
2023/01/19 10:53:20;;;;;;;1999.90;999.90;;;;;;;;;;4974872;28;20344;-69
2023/01/19 10:56:10;;;;;;;1999.90;999.90;;;;;;;;;;4966492;28;20296;-69
2023/01/19 10:58:58;;;;;;;1999.90;999.90;;;;;;;;;;4956979;28;20283;-69
2023/01/19 11:01:43;;;;;;;1999.90;999.90;;;;;;;;;;4957095;29;20205;-70
2023/01/19 11:04:28;;;;;;;1999.90;999.90;;;;;;;;;;4956558;29;20411;-70
2023/01/19 11:07:14;;;;;;;1999.90;999.90;;;;;;;;;;4958184;28;20578;-70
2023/01/19 11:10:13;;;;;;;1999.90;999.90;;;;;;;;;;4975837;28;20239;-67
2023/01/19 11:13:00;;;;;;;1999.90;999.90;;;;;;;;;;4966313;28;20343;-68
2023/01/19 11:15:49;;;;;;;1999.90;999.90;;;;;;;;;;4956157;29;20200;-69
2023/01/19 11:18:36;;;;;;;1999.90;999.90;;;;;;;;;;4975758;28;20228;-68
2023/01/19 11:21:22;;;;;;;1999.90;999.90;;;;;;;;;;4976002;28;20357;-68
2023/01/19 11:24:12;;;;;;;1999.90;999.90;;;;;;;;;;4975937;28;20208;-69
2023/01/19 11:27:01;;;;;;;1999.90;999.90;;;;;;;;;;4975511;28;20686;-67
2023/01/19 11:29:48;;;;;;;1999.90;999.90;;;;;;;;;;4963006;28;20742;-69
2023/01/19 11:32:35;;;;;;;1999.90;999.90;;;;;;;;;;4955389;28;20919;-69
2023/01/19 11:35:32;;;;;;;1999.90;999.90;;;;;;;;;;4955912;28;20341;-69
2023/01/19 11:38:18;;;;;;;1999.90;999.90;;;;;;;;;;4968961;28;20280;-69
2023/01/19 11:41:05;;;;;;;1999.90;999.90;;;;;;;;;;4975003;28;20211;-69
2023/01/19 11:43:51;;;;;;;1999.90;999.90;;;;;;;;;;4981834;28;20211;-69
2023/01/19 11:46:38;;;;;;;1999.90;999.90;;;;;;;;;;4970546;28;20224;-69
2023/01/19 11:49:26;;;;;;;1999.90;999.90;;;;;;;;;;4959272;28;20336;-70
2023/01/19 11:52:14;;;;;;;1999.90;999.90;;;;;;;;;;4975542;28;20733;-70
2023/01/19 11:55:01;;;;;;;1999.90;999.90;;;;;;;;;;4974747;28;20216;-70
2023/01/19 11:57:48;;;;;;;1999.90;999.90;;;;;;;;;;4956123;29;20589;-71
2023/01/19 12:00:35;;;;;;;1999.90;999.90;;;;;;;;;;4955646;28;20232;-68
2023/01/19 12:03:23;;;;;;;1999.90;999.90;;;;;;;;;;4955354;29;20208;-69
2023/01/19 12:06:11;;;;;;;1999.90;999.90;;;;;;;;;;4967907;28;20224;-69
2023/01/19 12:08:58;;;;;;;1999.90;999.90;;;;;;;;;;4970003;28;20240;-70
2023/01/19 12:11:44;;;;;;;1999.90;999.90;;;;;;;;;;4974121;28;20316;-71
2023/01/19 12:14:34;;;;;;;1999.90;999.90;;;;;;;;;;4974641;28;20243;-69
2023/01/19 12:17:24;;;;;;;1999.90;999.90;;;;;;;;;;4974764;28;20192;-69
2023/01/19 12:20:17;;;;;;;1999.90;999.90;;;;;;;;;;4974871;28;20232;-68
2023/01/19 12:23:08;;;;;;;1999.90;999.90;;;;;;;;;;4974463;28;20228;-68
2023/01/19 12:26:01;;;;;;;1999.90;999.90;;;;;;;;;;4955286;29;20704;-70
2023/01/19 12:28:47;;;;;;;1999.90;999.90;;;;;;;;;;4955266;28;20805;-69
2023/01/19 12:31:32;;;;;;;1999.90;999.90;;;;;;;;;;4966188;28;20714;-70
2023/01/19 12:34:30;;;;;;;1999.90;999.90;;;;;;;;;;4974395;28;20201;-69
2023/01/19 12:37:31;;;;;;;1999.90;999.90;;;;;;;;;;4974527;28;20203;-69
2023/01/19 12:40:24;;;;;;;1999.90;999.90;;;;;;;;;;4974594;28;20231;-69
2023/01/19 12:43:14;;;;;;;1999.90;999.90;;;;;;;;;;4974398;28;20295;-69
2023/01/19 12:45:59;;;;;;;1999.90;999.90;;;;;;;;;;4973675;28;20727;-69
2023/01/19 12:48:44;;;;;;;1999.90;999.90;;;;;;;;;;4974093;28;20243;-70
2023/01/19 12:51:29;;;;;;;1999.90;999.90;;;;;;;;;;4974005;28;20583;-69
2023/01/19 12:54:19;;;;;;;1999.90;999.90;;;;;;;;;;4961410;28;20713;-71
2023/01/19 12:57:08;;;;;;;1999.90;999.90;;;;;;;;;;4972539;28;20208;-70
2023/01/19 12:59:57;;;;;;;1999.90;999.90;;;;;;;;;;4971179;28;20505;-70
2023/01/19 13:02:43;;;;;;;1999.90;999.90;;;;;;;;;;4974276;28;20221;-70
2023/01/19 13:05:58;;;;;;;1999.90;999.90;;;;;;;;;;4973971;28;20325;-69
2023/01/19 13:08:56;;;;;;;1999.90;999.90;;;;;;;;;;4973372;28;20229;-69
2023/01/19 13:11:56;;;;;;;1999.90;999.90;;;;;;;;;;4962568;28;20285;-68
2023/01/19 13:14:43;;;;;;;1999.90;999.90;;;;;;;;;;4973260;28;20201;-69
2023/01/19 13:17:32;;;;;;;1999.90;999.90;;;;;;;;;;4973971;28;20287;-69
2023/01/19 13:20:26;;;;;;;1999.90;999.90;;;;;;;;;;4973704;28;20319;-69
2023/01/19 13:23:18;;;;;;;1999.90;999.90;;;;;;;;;;4973465;28;20579;-69
2023/01/19 13:26:05;;;;;;;1999.90;999.90;;;;;;;;;;4973022;28;20248;-69
2023/01/19 13:28:52;;;;;;;1999.90;999.90;;;;;;;;;;4973600;28;20236;-69
2023/01/19 13:31:39;;;;;;;1999.90;999.90;;;;;;;;;;4973755;28;20578;-69
2023/01/19 13:34:26;;;;;;;1999.90;999.90;;;;;;;;;;4973419;28;20219;-69
2023/01/19 13:37:14;;;;;;;1999.90;999.90;;;;;;;;;;4973814;28;20743;-69
2023/01/19 13:39:59;;;;;;;1999.90;999.90;;;;;;;;;;4973663;28;20236;-69
2023/01/19 13:42:45;;;;;;;1999.90;999.90;;;;;;;;;;4973801;28;20283;-69
2023/01/19 13:45:32;;;;;;;1999.90;999.90;;;;;;;;;;4973451;28;20207;-68
2023/01/19 13:48:21;;;;;;;1999.90;999.90;;;;;;;;;;4973475;28;20212;-69
2023/01/19 13:51:07;;;;;;;1999.90;999.90;;;;;;;;;;4973531;28;20205;-69
2023/01/19 13:53:55;;;;;;;1999.90;999.90;;;;;;;;;;4973162;28;20220;-68
2023/01/19 13:56:42;;;;;;;1999.90;999.90;;;;;;;;;;4953747;28;20276;-69
2023/01/19 13:59:27;;;;;;;1999.90;999.90;;;;;;;;;;4965403;28;20235;-69
2023/01/19 14:02:13;;;;;;;1999.90;999.90;;;;;;;;;;4973152;28;20415;-69
2023/01/19 14:05:11;;;;;;;1999.90;999.90;;;;;;;;;;4973017;28;20208;-69
2023/01/19 14:08:01;;;;;;;1999.90;999.90;;;;;;;;;;4953778;29;20204;-69
2023/01/19 14:10:47;;;;;;;1999.90;999.90;;;;;;;;;;4971694;28;20239;-68
2023/01/19 14:13:32;;;;;;;1999.90;999.90;;;;;;;;;;4970601;28;20578;-68
2023/01/19 14:16:17;;;;;;;1999.90;999.90;;;;;;;;;;4959209;28;20209;-69
2023/01/19 14:19:04;;;;;;;1999.90;999.90;;;;;;;;;;4957094;28;20243;-69
2023/01/19 14:21:59;;;;;;;1999.90;999.90;;;;;;;;;;4970803;28;20260;-68
2023/01/19 14:24:44;;;;;;;1999.90;999.90;;;;;;;;;;4959172;28;20634;-68
2023/01/19 14:27:29;;;;;;;1999.90;999.90;;;;;;;;;;4960448;28;20283;-68
2023/01/19 14:30:19;;;;;;;1999.90;999.90;;;;;;;;;;4976282;28;20417;-68
2023/01/19 14:33:05;;;;;;;1999.90;999.90;;;;;;;;;;4977141;28;20200;-69
2023/01/19 14:35:49;;;;;;;1999.90;999.90;;;;;;;;;;4975204;28;20699;-71
2023/01/19 14:38:37;;;;;;;1999.90;999.90;;;;;;;;;;4976550;28;20234;-72
2023/01/19 14:41:23;;;;;;;1999.90;999.90;;;;;;;;;;4960729;28;20208;-71
2023/01/19 14:44:09;;;;;;;1999.90;999.90;;;;;;;;;;4957390;28;20216;-71
2023/01/19 14:46:55;;;;;;;1999.90;999.90;;;;;;;;;;4956718;28;20223;-71
2023/01/19 14:49:41;;;;;;;1999.90;999.90;;;;;;;;;;4957050;28;20735;-68
2023/01/19 14:52:29;;;;;;;1999.90;999.90;;;;;;;;;;4960436;28;20256;-70
2023/01/19 14:55:19;;;;;;;1999.90;999.90;;;;;;;;;;4975604;28;20204;-67
2023/01/19 14:58:08;;;;;;;1999.90;999.90;;;;;;;;;;4975346;28;20213;-67
2023/01/19 15:00:54;;;;;;;1999.90;999.90;;;;;;;;;;4966257;28;20219;-69
2023/01/19 15:03:39;;;;;;;1999.90;999.90;;;;;;;;;;4957758;28;20636;-71
2023/01/19 15:06:25;;;;;;;1999.90;999.90;;;;;;;;;;4956657;28;20216;-70
2023/01/19 15:09:11;;;;;;;1999.90;999.90;;;;;;;;;;4956874;28;20309;-70
2023/01/19 15:11:58;;;;;;;1999.90;999.90;;;;;;;;;;4956992;28;20220;-71
2023/01/19 15:14:43;;;;;;;1999.90;999.90;;;;;;;;;;4956196;28;20212;-72
2023/01/19 15:17:28;;;;;;;1999.90;999.90;;;;;;;;;;4968637;28;20662;-72
2023/01/19 15:20:14;;;;;;;1999.90;999.90;;;;;;;;;;4974485;28;20725;-71
2023/01/19 15:22:59;;;;;;;1999.90;999.90;;;;;;;;;;4974643;28;20208;-71
2023/01/19 15:25:44;;;;;;;1999.90;999.90;;;;;;;;;;4975532;28;20340;-71
2023/01/19 15:28:31;;;;;;;1999.90;999.90;;;;;;;;;;4972305;28;20222;-72
2023/01/19 15:31:17;;;;;;;1999.90;999.90;;;;;;;;;;4968202;28;20332;-73
2023/01/19 15:34:02;;;;;;;1999.90;999.90;;;;;;;;;;4966132;28;20226;-74
2023/01/19 15:36:47;;;;;;;1999.90;999.90;;;;;;;;;;4957937;28;20217;-71
2023/01/19 15:39:32;;;;;;;1999.90;999.90;;;;;;;;;;4955739;28;20242;-72
2023/01/19 15:42:17;;;;;;;1999.90;999.90;;;;;;;;;;4956827;28;20683;-73
2023/01/19 15:45:16;;;;;;;1999.90;999.90;;;;;;;;;;4962601;28;20775;-70
2023/01/19 15:48:03;;;;;;;1999.90;999.90;;;;;;;;;;4971919;28;20279;-72
2023/01/19 15:50:48;;;;;;;1999.90;999.90;;;;;;;;;;4973989;28;20706;-70
2023/01/19 15:53:33;;;;;;;1999.90;999.90;;;;;;;;;;4971903;28;20220;-72
2023/01/19 15:56:19;;;;;;;1999.90;999.90;;;;;;;;;;4964924;28;20328;-70
2023/01/19 15:59:04;;;;;;;1999.90;999.90;;;;;;;;;;4962238;28;20352;-71
2023/01/19 16:01:51;;;;;;;1999.90;999.90;;;;;;;;;;4974880;28;20600;-71
2023/01/19 16:04:36;;;;;;;1999.90;999.90;;;;;;;;;;4974388;28;20497;-72
2023/01/19 16:07:21;;;;;;;1999.90;999.90;;;;;;;;;;4974930;28;20707;-72
2023/01/19 16:10:08;;;;;;;1999.90;999.90;;;;;;;;;;4974742;28;20911;-72
2023/01/19 16:12:53;;;;;;;1999.90;999.90;;;;;;;;;;4975229;28;20625;-72
2023/01/19 16:15:38;;;;;;;1999.90;999.90;;;;;;;;;;4974222;28;20212;-72
2023/01/19 16:18:25;;;;;;;1999.90;999.90;;;;;;;;;;4974706;28;20332;-72
2023/01/19 16:21:10;;;;;;;1999.90;999.90;;;;;;;;;;4975319;28;20204;-72
2023/01/19 16:23:55;;;;;;;1999.90;999.90;;;;;;;;;;4969440;28;20614;-72
2023/01/19 16:26:40;;;;;;;1999.90;999.90;;;;;;;;;;4966181;28;20243;-73
2023/01/19 16:29:25;;;;;;;1999.90;999.90;;;;;;;;;;4973596;28;20455;-73
2023/01/19 16:32:10;;;;;;;1999.90;999.90;;;;;;;;;;4975067;28;20208;-74
2023/01/19 16:34:56;;;;;;;1999.90;999.90;;;;;;;;;;4971493;28;20232;-74
2023/01/19 16:37:41;;;;;;;1999.90;999.90;;;;;;;;;;4975388;28;20207;-72
2023/01/19 16:40:26;;;;;;;1999.90;999.90;;;;;;;;;;4974625;28;20248;-74
2023/01/19 16:43:11;;;;;;;1999.90;999.90;;;;;;;;;;4974533;28;20207;-74
2023/01/19 16:45:57;;;;;;;1999.90;999.90;;;;;;;;;;4969772;28;20593;-74
2023/01/19 16:48:42;;;;;;;1999.90;999.90;;;;;;;;;;4971264;28;20351;-74
2023/01/19 16:51:29;;;;;;;1999.90;999.90;;;;;;;;;;4972225;28;20332;-73
2023/01/19 16:54:15;;;;;;;1999.90;999.90;;;;;;;;;;4970101;28;20216;-71
2023/01/19 16:57:00;;;;;;;1999.90;999.90;;;;;;;;;;4969960;28;20295;-72
2023/01/19 16:59:45;;;;;;;1999.90;999.90;;;;;;;;;;4967846;28;20239;-72
2023/01/19 17:02:30;;;;;;;1999.90;999.90;;;;;;;;;;4976678;28;20231;-72
2023/01/19 17:05:15;;;;;;;1999.90;999.90;;;;;;;;;;4969678;28;20282;-72
2023/01/19 17:08:01;;;;;;;1999.90;999.90;;;;;;;;;;4969718;28;20231;-71
2023/01/19 17:10:46;;;;;;;1999.90;999.90;;;;;;;;;;4975964;28;20773;-73
2023/01/19 17:13:31;;;;;;;1999.90;999.90;;;;;;;;;;4972767;28;20724;-70
2023/01/19 17:16:16;;;;;;;1999.90;999.90;;;;;;;;;;4954617;29;20280;-72
2023/01/19 17:19:02;;;;;;;1999.90;999.90;;;;;;;;;;4955566;28;20376;-71
2023/01/19 17:21:48;;;;;;;1999.90;999.90;;;;;;;;;;4971564;28;20282;-72
2023/01/19 17:24:34;;;;;;;1999.90;999.90;;;;;;;;;;4969494;28;20766;-72
2023/01/19 17:27:19;;;;;;;1999.90;999.90;;;;;;;;;;4953737;28;20216;-73
2023/01/19 17:30:05;;;;;;;1999.90;999.90;;;;;;;;;;4953592;28;20245;-73
2023/01/19 17:32:50;;;;;;;1999.90;999.90;;;;;;;;;;4970498;28;20718;-72
2023/01/19 17:35:35;;;;;;;1999.90;999.90;;;;;;;;;;4967874;28;20430;-72
2023/01/19 17:38:20;;;;;;;1999.90;999.90;;;;;;;;;;4953390;28;20632;-72
2023/01/19 17:41:13;;;;;;;1999.90;999.90;;;;;;;;;;4955923;28;20471;-71
2023/01/19 17:43:59;;;;;;;1999.90;999.90;;;;;;;;;;4965702;28;20293;-72